sensor_id;sensor_type;location;lat;lon;timestamp;temperature;humidity
1297;DHT22;641;48.492;9.184;2022-12-07T00:01:33;6.10;99.90
1297;DHT22;641;48.492;9.184;2022-12-07T00:04:01;6.00;99.90
1297;DHT22;641;48.492;9.184;2022-12-07T00:06:34;6.10;99.90
1297;DHT22;641;48.492;9.184;2022-12-07T00:09:00;6.50;99.90
1297;DHT22;641;48.492;9.184;2022-12-07T00:11:26;6.00;99.90
1297;DHT22;641;48.492;9.184;2022-12-07T00:14:03;6.10;99.90
1297;DHT22;641;48.492;9.184;2022-12-07T00:16:31;6.00;99.90
1297;DHT22;641;48.492;9.184;2022-12-07T00:18:57;6.00;99.90
1297;DHT22;641;48.492;9.184;2022-12-07T00:21:34;6.00;99.90
1297;DHT22;641;48.492;9.184;2022-12-07T00:24:01;5.90;99.90
1297;DHT22;641;48.492;9.184;2022-12-07T00:26:29;6.00;99.90
1297;DHT22;641;48.492;9.184;2022-12-07T00:28:58;6.00;99.90
1297;DHT22;641;48.492;9.184;2022-12-07T00:31:27;6.00;99.90
1297;DHT22;641;48.492;9.184;2022-12-07T00:33:53;6.30;99.90
1297;DHT22;641;48.492;9.184;2022-12-07T00:36:21;6.00;99.90
1297;DHT22;641;48.492;9.184;2022-12-07T00:38:47;6.90;99.90
1297;DHT22;641;48.492;9.184;2022-12-07T00:41:18;6.00;99.90
1297;DHT22;641;48.492;9.184;2022-12-07T00:43:45;5.90;99.90
1297;DHT22;641;48.492;9.184;2022-12-07T00:46:11;5.70;99.90
1297;DHT22;641;48.492;9.184;2022-12-07T00:48:38;6.50;99.90
1297;DHT22;641;48.492;9.184;2022-12-07T00:51:04;5.80;99.90
1297;DHT22;641;48.492;9.184;2022-12-07T00:53:30;5.90;99.90
1297;DHT22;641;48.492;9.184;2022-12-07T00:55:56;6.00;99.90
1297;DHT22;641;48.492;9.184;2022-12-07T00:58:24;6.00;99.90
1297;DHT22;641;48.492;9.184;2022-12-07T01:00:50;5.90;99.90
1297;DHT22;641;48.492;9.184;2022-12-07T01:03:16;7.20;99.90
1297;DHT22;641;48.492;9.184;2022-12-07T01:05:52;5.80;99.90
1297;DHT22;641;48.492;9.184;2022-12-07T01:08:18;5.70;99.90
1297;DHT22;641;48.492;9.184;2022-12-07T01:10:44;6.40;99.90
1297;DHT22;641;48.492;9.184;2022-12-07T01:13:09;5.50;99.90
1297;DHT22;641;48.492;9.184;2022-12-07T01:15:39;5.40;99.90
1297;DHT22;641;48.492;9.184;2022-12-07T01:18:05;5.30;99.90
1297;DHT22;641;48.492;9.184;2022-12-07T01:20:30;5.50;99.90
1297;DHT22;641;48.492;9.184;2022-12-07T01:22:56;5.60;99.90
1297;DHT22;641;48.492;9.184;2022-12-07T01:25:21;5.80;99.90
1297;DHT22;641;48.492;9.184;2022-12-07T01:27:47;5.80;99.90
1297;DHT22;641;48.492;9.184;2022-12-07T01:30:13;5.80;99.90
1297;DHT22;641;48.492;9.184;2022-12-07T01:32:38;5.70;99.90
1297;DHT22;641;48.492;9.184;2022-12-07T01:35:04;5.60;99.90
1297;DHT22;641;48.492;9.184;2022-12-07T01:37:34;5.70;99.90
1297;DHT22;641;48.492;9.184;2022-12-07T01:40:01;6.70;99.90
1297;DHT22;641;48.492;9.184;2022-12-07T01:42:26;6.60;99.90
1297;DHT22;641;48.492;9.184;2022-12-07T01:45:39;7.10;99.90
1297;DHT22;641;48.492;9.184;2022-12-07T01:48:05;5.80;99.90
1297;DHT22;641;48.492;9.184;2022-12-07T01:50:33;5.80;99.90
1297;DHT22;641;48.492;9.184;2022-12-07T01:53:01;5.90;99.90
1297;DHT22;641;48.492;9.184;2022-12-07T01:55:28;5.80;99.90
1297;DHT22;641;48.492;9.184;2022-12-07T01:57:55;5.80;99.90
1297;DHT22;641;48.492;9.184;2022-12-07T02:00:21;5.80;99.90
1297;DHT22;641;48.492;9.184;2022-12-07T02:05:42;5.90;99.90
1297;DHT22;641;48.492;9.184;2022-12-07T02:08:08;5.80;99.90
1297;DHT22;641;48.492;9.184;2022-12-07T02:10:34;5.80;99.90
1297;DHT22;641;48.492;9.184;2022-12-07T02:27:07;6.00;99.90
1297;DHT22;641;48.492;9.184;2022-12-07T02:30:02;5.80;99.90
1297;DHT22;641;48.492;9.184;2022-12-07T02:35:24;5.90;99.90
1297;DHT22;641;48.492;9.184;2022-12-07T02:40:51;5.80;99.90
1297;DHT22;641;48.492;9.184;2022-12-07T02:43:31;6.10;99.90
1297;DHT22;641;48.492;9.184;2022-12-07T02:46:06;5.70;99.90
1297;DHT22;641;48.492;9.184;2022-12-07T02:48:34;5.60;99.90
1297;DHT22;641;48.492;9.184;2022-12-07T02:51:00;5.50;99.90
1297;DHT22;641;48.492;9.184;2022-12-07T02:55:55;5.50;99.90
1297;DHT22;641;48.492;9.184;2022-12-07T03:01:15;5.60;99.90
1297;DHT22;641;48.492;9.184;2022-12-07T03:03:47;5.50;99.90
1297;DHT22;641;48.492;9.184;2022-12-07T03:06:31;5.90;99.90
1297;DHT22;641;48.492;9.184;2022-12-07T03:09:12;6.20;99.90
1297;DHT22;641;48.492;9.184;2022-12-07T03:11:58;6.20;99.90
1297;DHT22;641;48.492;9.184;2022-12-07T03:14:38;5.30;99.90
1297;DHT22;641;48.492;9.184;2022-12-07T03:17:14;5.30;99.90
1297;DHT22;641;48.492;9.184;2022-12-07T03:19:44;5.40;99.90
1297;DHT22;641;48.492;9.184;2022-12-07T03:22:12;5.20;99.90
1297;DHT22;641;48.492;9.184;2022-12-07T03:24:43;5.10;99.90
1297;DHT22;641;48.492;9.184;2022-12-07T03:27:20;5.20;99.90
1297;DHT22;641;48.492;9.184;2022-12-07T03:29:51;5.30;99.90
1297;DHT22;641;48.492;9.184;2022-12-07T03:32:33;5.60;99.90
1297;DHT22;641;48.492;9.184;2022-12-07T03:35:33;5.50;99.90
1297;DHT22;641;48.492;9.184;2022-12-07T03:38:36;5.50;99.90
1297;DHT22;641;48.492;9.184;2022-12-07T03:43:34;5.30;99.90
1297;DHT22;641;48.492;9.184;2022-12-07T03:46:18;5.30;99.90
1297;DHT22;641;48.492;9.184;2022-12-07T03:49:15;5.40;99.90
1297;DHT22;641;48.492;9.184;2022-12-07T03:56:40;5.30;99.90
1297;DHT22;641;48.492;9.184;2022-12-07T03:59:06;5.40;99.90
1297;DHT22;641;48.492;9.184;2022-12-07T04:01:32;5.20;99.90
1297;DHT22;641;48.492;9.184;2022-12-07T04:03:58;5.20;99.90
1297;DHT22;641;48.492;9.184;2022-12-07T04:06:23;5.30;99.90
1297;DHT22;641;48.492;9.184;2022-12-07T04:08:49;5.30;99.90
1297;DHT22;641;48.492;9.184;2022-12-07T04:11:14;5.30;99.90
1297;DHT22;641;48.492;9.184;2022-12-07T04:13:40;5.40;99.90
1297;DHT22;641;48.492;9.184;2022-12-07T04:16:24;5.40;99.90
1297;DHT22;641;48.492;9.184;2022-12-07T04:18:49;5.40;99.90
1297;DHT22;641;48.492;9.184;2022-12-07T04:21:15;5.40;99.90
1297;DHT22;641;48.492;9.184;2022-12-07T04:23:41;6.20;99.90
1297;DHT22;641;48.492;9.184;2022-12-07T04:26:06;5.10;99.90
1297;DHT22;641;48.492;9.184;2022-12-07T04:28:32;5.30;99.90
1297;DHT22;641;48.492;9.184;2022-12-07T04:30:58;5.60;99.90
1297;DHT22;641;48.492;9.184;2022-12-07T04:33:23;5.70;99.90
1297;DHT22;641;48.492;9.184;2022-12-07T04:35:49;5.40;99.90
1297;DHT22;641;48.492;9.184;2022-12-07T04:38:14;5.30;99.90
1297;DHT22;641;48.492;9.184;2022-12-07T04:40:40;6.30;99.90
1297;DHT22;641;48.492;9.184;2022-12-07T04:43:05;5.40;99.90
1297;DHT22;641;48.492;9.184;2022-12-07T04:45:31;5.40;99.90
1297;DHT22;641;48.492;9.184;2022-12-07T04:47:56;5.30;99.90
1297;DHT22;641;48.492;9.184;2022-12-07T04:50:22;5.30;99.90
1297;DHT22;641;48.492;9.184;2022-12-07T04:52:47;5.30;99.90
1297;DHT22;641;48.492;9.184;2022-12-07T04:55:13;5.40;99.90
1297;DHT22;641;48.492;9.184;2022-12-07T04:57:39;5.40;99.90
1297;DHT22;641;48.492;9.184;2022-12-07T05:00:05;6.10;99.90
1297;DHT22;641;48.492;9.184;2022-12-07T05:02:30;5.30;99.90
1297;DHT22;641;48.492;9.184;2022-12-07T05:04:56;5.40;99.90
1297;DHT22;641;48.492;9.184;2022-12-07T05:07:22;5.70;99.90
1297;DHT22;641;48.492;9.184;2022-12-07T05:09:47;5.10;99.90
1297;DHT22;641;48.492;9.184;2022-12-07T05:12:13;5.30;99.90
1297;DHT22;641;48.492;9.184;2022-12-07T05:14:38;5.10;99.90
1297;DHT22;641;48.492;9.184;2022-12-07T05:17:04;5.80;99.90
1297;DHT22;641;48.492;9.184;2022-12-07T05:19:29;5.10;99.90
1297;DHT22;641;48.492;9.184;2022-12-07T05:21:55;5.20;99.90
1297;DHT22;641;48.492;9.184;2022-12-07T05:24:21;6.20;99.90
1297;DHT22;641;48.492;9.184;2022-12-07T05:26:46;5.30;99.90
1297;DHT22;641;48.492;9.184;2022-12-07T05:29:14;5.10;99.90
1297;DHT22;641;48.492;9.184;2022-12-07T05:31:40;4.90;99.90
1297;DHT22;641;48.492;9.184;2022-12-07T05:34:06;5.00;99.90
1297;DHT22;641;48.492;9.184;2022-12-07T05:36:32;4.90;99.90
1297;DHT22;641;48.492;9.184;2022-12-07T05:38:58;4.70;99.90
1297;DHT22;641;48.492;9.184;2022-12-07T05:41:24;4.70;99.90
1297;DHT22;641;48.492;9.184;2022-12-07T05:44:08;4.70;99.90
1297;DHT22;641;48.492;9.184;2022-12-07T05:46:34;4.50;99.90
1297;DHT22;641;48.492;9.184;2022-12-07T05:49:00;4.50;99.90
1297;DHT22;641;48.492;9.184;2022-12-07T05:51:25;4.60;99.90
1297;DHT22;641;48.492;9.184;2022-12-07T05:53:51;4.50;99.90
1297;DHT22;641;48.492;9.184;2022-12-07T05:56:16;4.30;99.90
1297;DHT22;641;48.492;9.184;2022-12-07T05:58:42;4.20;99.90
1297;DHT22;641;48.492;9.184;2022-12-07T06:01:26;4.30;99.90
1297;DHT22;641;48.492;9.184;2022-12-07T06:03:52;4.50;99.90
1297;DHT22;641;48.492;9.184;2022-12-07T06:06:17;4.30;99.90
1297;DHT22;641;48.492;9.184;2022-12-07T06:11:09;4.20;99.90
1297;DHT22;641;48.492;9.184;2022-12-07T06:13:53;4.40;99.90
1297;DHT22;641;48.492;9.184;2022-12-07T06:16:19;4.00;99.90
1297;DHT22;641;48.492;9.184;2022-12-07T06:18:44;3.80;99.90
1297;DHT22;641;48.492;9.184;2022-12-07T06:21:10;4.10;99.90
1297;DHT22;641;48.492;9.184;2022-12-07T06:23:35;3.80;99.90
1297;DHT22;641;48.492;9.184;2022-12-07T06:26:01;3.50;99.90
1297;DHT22;641;48.492;9.184;2022-12-07T06:28:26;3.40;99.90
1297;DHT22;641;48.492;9.184;2022-12-07T06:37:57;3.10;99.90
1297;DHT22;641;48.492;9.184;2022-12-07T06:43:56;3.20;99.90
1297;DHT22;641;48.492;9.184;2022-12-07T06:46:22;3.10;99.90
1297;DHT22;641;48.492;9.184;2022-12-07T06:48:48;3.50;99.90
1297;DHT22;641;48.492;9.184;2022-12-07T06:51:13;3.10;99.90
1297;DHT22;641;48.492;9.184;2022-12-07T06:53:39;3.60;99.90
1297;DHT22;641;48.492;9.184;2022-12-07T06:56:05;3.90;99.90
1297;DHT22;641;48.492;9.184;2022-12-07T06:58:31;3.10;99.90
1297;DHT22;641;48.492;9.184;2022-12-07T07:03:22;2.90;99.90
1297;DHT22;641;48.492;9.184;2022-12-07T07:05:48;2.60;99.90
1297;DHT22;641;48.492;9.184;2022-12-07T07:08:14;3.30;99.90
1297;DHT22;641;48.492;9.184;2022-12-07T07:10:40;2.70;99.90
1297;DHT22;641;48.492;9.184;2022-12-07T07:13:06;3.80;99.90
1297;DHT22;641;48.492;9.184;2022-12-07T07:15:32;3.40;99.90
1297;DHT22;641;48.492;9.184;2022-12-07T07:17:58;4.10;99.90
1297;DHT22;641;48.492;9.184;2022-12-07T07:20:24;3.80;99.90
1297;DHT22;641;48.492;9.184;2022-12-07T07:22:50;3.10;99.90
1297;DHT22;641;48.492;9.184;2022-12-07T07:25:15;3.20;99.90
1297;DHT22;641;48.492;9.184;2022-12-07T07:30:08;2.60;99.90
1297;DHT22;641;48.492;9.184;2022-12-07T07:32:34;2.70;99.90
1297;DHT22;641;48.492;9.184;2022-12-07T07:35:00;4.20;99.90
1297;DHT22;641;48.492;9.184;2022-12-07T07:37:26;3.20;99.90
1297;DHT22;641;48.492;9.184;2022-12-07T07:43:13;3.30;99.90
1297;DHT22;641;48.492;9.184;2022-12-07T07:45:39;3.60;99.90
1297;DHT22;641;48.492;9.184;2022-12-07T07:48:06;4.70;99.90
1297;DHT22;641;48.492;9.184;2022-12-07T07:50:31;3.90;99.90
1297;DHT22;641;48.492;9.184;2022-12-07T09:46:41;5.90;99.90
1297;DHT22;641;48.492;9.184;2022-12-07T09:49:17;6.10;99.90
1297;DHT22;641;48.492;9.184;2022-12-07T09:51:44;6.60;99.90
1297;DHT22;641;48.492;9.184;2022-12-07T09:54:13;7.10;99.90
1297;DHT22;641;48.492;9.184;2022-12-07T21:45:40;5.10;99.90
1297;DHT22;641;48.492;9.184;2022-12-07T21:48:07;5.30;99.90
1297;DHT22;641;48.492;9.184;2022-12-07T21:50:33;5.10;99.90
1297;DHT22;641;48.492;9.184;2022-12-07T21:53:02;5.60;99.90
1297;DHT22;641;48.492;9.184;2022-12-07T21:55:27;6.10;99.90
1297;DHT22;641;48.492;9.184;2022-12-07T22:00:19;5.00;99.90
1297;DHT22;641;48.492;9.184;2022-12-07T22:02:49;5.00;99.90
1297;DHT22;641;48.492;9.184;2022-12-07T22:05:15;6.30;99.90
1297;DHT22;641;48.492;9.184;2022-12-07T22:07:40;6.40;99.90
1297;DHT22;641;48.492;9.184;2022-12-07T22:10:06;5.30;99.90
1297;DHT22;641;48.492;9.184;2022-12-07T22:12:32;5.10;99.90
1297;DHT22;641;48.492;9.184;2022-12-07T22:14:58;5.10;99.90
1297;DHT22;641;48.492;9.184;2022-12-07T22:17:34;5.70;99.90
1297;DHT22;641;48.492;9.184;2022-12-07T22:20:00;5.70;99.90
1297;DHT22;641;48.492;9.184;2022-12-07T22:22:25;4.90;99.90
1297;DHT22;641;48.492;9.184;2022-12-07T22:24:51;6.10;99.90
1297;DHT22;641;48.492;9.184;2022-12-07T22:27:17;5.20;99.90
1297;DHT22;641;48.492;9.184;2022-12-07T22:29:43;4.70;99.90
1297;DHT22;641;48.492;9.184;2022-12-07T22:32:09;5.30;99.90
1297;DHT22;641;48.492;9.184;2022-12-07T22:34:35;6.10;99.90
1297;DHT22;641;48.492;9.184;2022-12-07T22:37:00;5.70;99.90
1297;DHT22;641;48.492;9.184;2022-12-07T22:39:26;4.80;99.90
1297;DHT22;641;48.492;9.184;2022-12-07T22:41:52;4.90;99.90
1297;DHT22;641;48.492;9.184;2022-12-07T22:46:44;4.90;99.90
1297;DHT22;641;48.492;9.184;2022-12-07T22:49:10;5.00;99.90
1297;DHT22;641;48.492;9.184;2022-12-07T22:51:38;5.10;99.90
1297;DHT22;641;48.492;9.184;2022-12-07T22:54:07;4.90;99.90
1297;DHT22;641;48.492;9.184;2022-12-07T22:56:35;4.80;99.90
1297;DHT22;641;48.492;9.184;2022-12-07T22:59:01;4.90;99.90
1297;DHT22;641;48.492;9.184;2022-12-07T23:01:27;5.50;99.90
1297;DHT22;641;48.492;9.184;2022-12-07T23:03:53;4.20;99.90
1297;DHT22;641;48.492;9.184;2022-12-07T23:06:27;5.30;99.90
1297;DHT22;641;48.492;9.184;2022-12-07T23:08:55;4.30;99.90
1297;DHT22;641;48.492;9.184;2022-12-07T23:11:24;4.80;99.90
1297;DHT22;641;48.492;9.184;2022-12-07T23:14:11;5.10;99.90
1297;DHT22;641;48.492;9.184;2022-12-07T23:16:37;5.10;99.90
1297;DHT22;641;48.492;9.184;2022-12-07T23:19:02;5.60;99.90
1297;DHT22;641;48.492;9.184;2022-12-07T23:23:54;4.70;99.90
1297;DHT22;641;48.492;9.184;2022-12-07T23:26:20;4.80;99.90
1297;DHT22;641;48.492;9.184;2022-12-07T23:28:45;4.80;99.90
1297;DHT22;641;48.492;9.184;2022-12-07T23:31:13;5.00;99.90
1297;DHT22;641;48.492;9.184;2022-12-07T23:33:40;6.30;99.90
1297;DHT22;641;48.492;9.184;2022-12-07T23:36:08;5.40;99.90
1297;DHT22;641;48.492;9.184;2022-12-07T23:38:34;4.80;99.90
1297;DHT22;641;48.492;9.184;2022-12-07T23:41:06;5.00;99.90
1297;DHT22;641;48.492;9.184;2022-12-07T23:43:34;4.70;99.90
1297;DHT22;641;48.492;9.184;2022-12-07T23:46:00;5.10;99.90
1297;DHT22;641;48.492;9.184;2022-12-07T23:48:25;3.80;99.90
1297;DHT22;641;48.492;9.184;2022-12-07T23:50:51;4.90;99.90
1297;DHT22;641;48.492;9.184;2022-12-07T23:53:20;3.40;99.90
1297;DHT22;641;48.492;9.184;2022-12-07T23:55:45;4.70;99.90
1297;DHT22;641;48.492;9.184;2022-12-07T23:58:11;4.90;99.90
